sensor_id;sensor_type;location;lat;lon;timestamp;temperature;humidity
10905;DHT22;5505;51.450;9.254;2023-06-26T00:01:33;18.50;99.90
10905;DHT22;5505;51.450;9.254;2023-06-26T00:04:20;18.50;99.90
10905;DHT22;5505;51.450;9.254;2023-06-26T00:07:07;18.40;99.90
10905;DHT22;5505;51.450;9.254;2023-06-26T00:09:53;18.40;99.90
10905;DHT22;5505;51.450;9.254;2023-06-26T00:12:40;18.40;99.90
10905;DHT22;5505;51.450;9.254;2023-06-26T00:15:28;18.40;99.90
10905;DHT22;5505;51.450;9.254;2023-06-26T00:18:17;18.30;99.90
10905;DHT22;5505;51.450;9.254;2023-06-26T00:21:03;18.30;99.90
10905;DHT22;5505;51.450;9.254;2023-06-26T00:23:50;18.30;99.90
10905;DHT22;5505;51.450;9.254;2023-06-26T00:26:37;18.20;99.90
10905;DHT22;5505;51.450;9.254;2023-06-26T00:29:23;18.20;99.90
10905;DHT22;5505;51.450;9.254;2023-06-26T00:32:12;18.10;99.90
10905;DHT22;5505;51.450;9.254;2023-06-26T00:34:58;18.10;99.90
10905;DHT22;5505;51.450;9.254;2023-06-26T00:37:45;18.00;99.90
10905;DHT22;5505;51.450;9.254;2023-06-26T00:40:32;17.90;99.90
10905;DHT22;5505;51.450;9.254;2023-06-26T00:43:19;17.80;99.90
10905;DHT22;5505;51.450;9.254;2023-06-26T00:46:09;17.80;99.90
10905;DHT22;5505;51.450;9.254;2023-06-26T00:48:58;16.30;99.90
10905;DHT22;5505;51.450;9.254;2023-06-26T00:51:46;17.70;99.90
10905;DHT22;5505;51.450;9.254;2023-06-26T00:54:33;17.60;99.90
10905;DHT22;5505;51.450;9.254;2023-06-26T00:57:20;17.60;99.90
10905;DHT22;5505;51.450;9.254;2023-06-26T01:00:08;17.50;99.90
10905;DHT22;5505;51.450;9.254;2023-06-26T01:02:57;17.50;99.90
10905;DHT22;5505;51.450;9.254;2023-06-26T01:05:46;17.40;99.90
10905;DHT22;5505;51.450;9.254;2023-06-26T01:08:35;17.40;99.90
10905;DHT22;5505;51.450;9.254;2023-06-26T01:11:21;17.40;99.90
10905;DHT22;5505;51.450;9.254;2023-06-26T01:14:08;17.40;99.90
10905;DHT22;5505;51.450;9.254;2023-06-26T01:16:55;17.30;99.90
10905;DHT22;5505;51.450;9.254;2023-06-26T01:19:43;18.20;99.90
10905;DHT22;5505;51.450;9.254;2023-06-26T01:22:37;17.30;99.90
10905;DHT22;5505;51.450;9.254;2023-06-26T01:25:35;17.30;99.90
10905;DHT22;5505;51.450;9.254;2023-06-26T01:28:26;17.20;99.90
10905;DHT22;5505;51.450;9.254;2023-06-26T01:31:14;17.10;99.90
10905;DHT22;5505;51.450;9.254;2023-06-26T01:34:01;17.00;99.90
10905;DHT22;5505;51.450;9.254;2023-06-26T01:36:48;17.00;99.90
10905;DHT22;5505;51.450;9.254;2023-06-26T01:39:35;17.00;99.90
10905;DHT22;5505;51.450;9.254;2023-06-26T01:42:21;17.00;99.90
10905;DHT22;5505;51.450;9.254;2023-06-26T01:45:24;17.00;99.90
10905;DHT22;5505;51.450;9.254;2023-06-26T01:48:15;17.30;99.90
10905;DHT22;5505;51.450;9.254;2023-06-26T01:51:03;17.00;99.90
10905;DHT22;5505;51.450;9.254;2023-06-26T01:53:53;16.90;99.90
10905;DHT22;5505;51.450;9.254;2023-06-26T01:56:43;16.90;99.90
10905;DHT22;5505;51.450;9.254;2023-06-26T01:59:32;16.90;99.90
10905;DHT22;5505;51.450;9.254;2023-06-26T02:02:23;16.90;99.90
10905;DHT22;5505;51.450;9.254;2023-06-26T02:05:10;16.80;99.90
10905;DHT22;5505;51.450;9.254;2023-06-26T02:07:57;16.70;99.90
10905;DHT22;5505;51.450;9.254;2023-06-26T02:10:43;16.70;99.90
10905;DHT22;5505;51.450;9.254;2023-06-26T02:13:30;16.60;99.90
10905;DHT22;5505;51.450;9.254;2023-06-26T02:16:17;16.50;99.90
10905;DHT22;5505;51.450;9.254;2023-06-26T02:19:05;16.50;99.90
10905;DHT22;5505;51.450;9.254;2023-06-26T02:21:52;16.50;99.90
10905;DHT22;5505;51.450;9.254;2023-06-26T02:24:39;16.50;99.90
10905;DHT22;5505;51.450;9.254;2023-06-26T02:27:26;16.50;99.90
10905;DHT22;5505;51.450;9.254;2023-06-26T02:30:12;16.40;99.90
10905;DHT22;5505;51.450;9.254;2023-06-26T02:32:59;16.40;99.90
10905;DHT22;5505;51.450;9.254;2023-06-26T02:35:47;16.40;99.90
10905;DHT22;5505;51.450;9.254;2023-06-26T02:38:35;16.40;99.90
10905;DHT22;5505;51.450;9.254;2023-06-26T02:41:22;16.40;99.90
10905;DHT22;5505;51.450;9.254;2023-06-26T02:44:09;16.40;99.90
10905;DHT22;5505;51.450;9.254;2023-06-26T02:46:57;17.30;99.90
10905;DHT22;5505;51.450;9.254;2023-06-26T02:49:43;16.30;99.90
10905;DHT22;5505;51.450;9.254;2023-06-26T02:52:31;16.30;99.90
10905;DHT22;5505;51.450;9.254;2023-06-26T02:55:18;16.30;99.90
10905;DHT22;5505;51.450;9.254;2023-06-26T02:58:06;16.20;99.90
10905;DHT22;5505;51.450;9.254;2023-06-26T03:00:53;16.20;99.90
10905;DHT22;5505;51.450;9.254;2023-06-26T03:03:41;16.10;99.90
10905;DHT22;5505;51.450;9.254;2023-06-26T03:06:28;16.10;99.90
10905;DHT22;5505;51.450;9.254;2023-06-26T03:09:16;16.10;99.90
10905;DHT22;5505;51.450;9.254;2023-06-26T03:12:03;16.00;99.90
10905;DHT22;5505;51.450;9.254;2023-06-26T03:14:50;16.00;99.90
10905;DHT22;5505;51.450;9.254;2023-06-26T03:17:37;16.20;99.90
10905;DHT22;5505;51.450;9.254;2023-06-26T03:20:24;16.10;99.90
10905;DHT22;5505;51.450;9.254;2023-06-26T03:23:10;16.00;99.90
10905;DHT22;5505;51.450;9.254;2023-06-26T03:25:58;16.00;99.90
10905;DHT22;5505;51.450;9.254;2023-06-26T03:28:45;16.00;99.90
10905;DHT22;5505;51.450;9.254;2023-06-26T03:31:32;16.00;99.90
10905;DHT22;5505;51.450;9.254;2023-06-26T03:34:19;16.00;99.90
10905;DHT22;5505;51.450;9.254;2023-06-26T03:37:06;16.00;99.90
10905;DHT22;5505;51.450;9.254;2023-06-26T03:39:53;16.00;99.90
10905;DHT22;5505;51.450;9.254;2023-06-26T03:42:42;15.90;99.90
10905;DHT22;5505;51.450;9.254;2023-06-26T03:45:29;16.90;99.90
10905;DHT22;5505;51.450;9.254;2023-06-26T03:48:15;16.00;99.90
10905;DHT22;5505;51.450;9.254;2023-06-26T03:51:02;16.00;99.90
10905;DHT22;5505;51.450;9.254;2023-06-26T03:53:49;16.00;99.90
10905;DHT22;5505;51.450;9.254;2023-06-26T03:56:36;16.80;99.90
10905;DHT22;5505;51.450;9.254;2023-06-26T03:59:24;16.10;99.90
10905;DHT22;5505;51.450;9.254;2023-06-26T04:02:11;16.10;99.90
10905;DHT22;5505;51.450;9.254;2023-06-26T04:04:59;16.10;99.90
10905;DHT22;5505;51.450;9.254;2023-06-26T04:07:45;16.10;99.90
10905;DHT22;5505;51.450;9.254;2023-06-26T04:10:35;16.20;99.90
10905;DHT22;5505;51.450;9.254;2023-06-26T04:13:22;16.10;99.90
10905;DHT22;5505;51.450;9.254;2023-06-26T04:16:10;16.50;99.90
10905;DHT22;5505;51.450;9.254;2023-06-26T04:18:58;16.20;99.90
10905;DHT22;5505;51.450;9.254;2023-06-26T04:21:44;16.30;99.90
10905;DHT22;5505;51.450;9.254;2023-06-26T04:24:31;16.30;99.90
10905;DHT22;5505;51.450;9.254;2023-06-26T04:27:18;16.40;99.90
10905;DHT22;5505;51.450;9.254;2023-06-26T04:30:06;16.40;99.90
10905;DHT22;5505;51.450;9.254;2023-06-26T04:32:54;16.50;99.90
10905;DHT22;5505;51.450;9.254;2023-06-26T04:35:44;16.60;99.90
10905;DHT22;5505;51.450;9.254;2023-06-26T04:38:34;16.80;99.90
10905;DHT22;5505;51.450;9.254;2023-06-26T04:41:21;16.80;99.90
10905;DHT22;5505;51.450;9.254;2023-06-26T04:44:07;16.90;99.90
10905;DHT22;5505;51.450;9.254;2023-06-26T04:46:54;17.00;99.90
10905;DHT22;5505;51.450;9.254;2023-06-26T04:49:42;17.10;99.90
10905;DHT22;5505;51.450;9.254;2023-06-26T04:52:31;17.20;99.90
10905;DHT22;5505;51.450;9.254;2023-06-26T04:55:18;17.30;99.90
10905;DHT22;5505;51.450;9.254;2023-06-26T04:58:06;17.30;99.90
10905;DHT22;5505;51.450;9.254;2023-06-26T05:00:53;17.50;99.90
10905;DHT22;5505;51.450;9.254;2023-06-26T05:03:40;17.60;99.90
10905;DHT22;5505;51.450;9.254;2023-06-26T05:06:28;17.60;99.90
10905;DHT22;5505;51.450;9.254;2023-06-26T05:09:15;17.70;99.90
10905;DHT22;5505;51.450;9.254;2023-06-26T05:12:02;16.90;99.90
10905;DHT22;5505;51.450;9.254;2023-06-26T05:14:49;17.80;99.90
10905;DHT22;5505;51.450;9.254;2023-06-26T05:17:36;17.90;99.90
10905;DHT22;5505;51.450;9.254;2023-06-26T05:20:23;18.00;99.90
10905;DHT22;5505;51.450;9.254;2023-06-26T05:23:12;18.10;99.90
10905;DHT22;5505;51.450;9.254;2023-06-26T05:25:59;18.20;99.90
10905;DHT22;5505;51.450;9.254;2023-06-26T05:28:46;17.00;99.90
10905;DHT22;5505;51.450;9.254;2023-06-26T05:31:35;18.50;99.90
10905;DHT22;5505;51.450;9.254;2023-06-26T05:34:27;18.70;99.90
10905;DHT22;5505;51.450;9.254;2023-06-26T05:37:20;18.90;99.90
10905;DHT22;5505;51.450;9.254;2023-06-26T05:40:09;19.00;99.90
10905;DHT22;5505;51.450;9.254;2023-06-26T05:42:57;19.00;99.90
10905;DHT22;5505;51.450;9.254;2023-06-26T05:45:44;19.10;99.90
10905;DHT22;5505;51.450;9.254;2023-06-26T05:48:30;19.20;99.90
10905;DHT22;5505;51.450;9.254;2023-06-26T05:51:17;19.20;99.90
10905;DHT22;5505;51.450;9.254;2023-06-26T05:54:05;19.20;99.90
10905;DHT22;5505;51.450;9.254;2023-06-26T05:56:56;19.20;99.90
10905;DHT22;5505;51.450;9.254;2023-06-26T05:59:45;19.20;99.90
10905;DHT22;5505;51.450;9.254;2023-06-26T06:02:32;19.30;99.90
10905;DHT22;5505;51.450;9.254;2023-06-26T06:05:19;19.50;99.90
10905;DHT22;5505;51.450;9.254;2023-06-26T06:08:06;19.80;99.90
10905;DHT22;5505;51.450;9.254;2023-06-26T06:10:53;19.90;99.90
10905;DHT22;5505;51.450;9.254;2023-06-26T06:13:41;20.00;99.90
10905;DHT22;5505;51.450;9.254;2023-06-26T06:16:28;20.20;99.90
10905;DHT22;5505;51.450;9.254;2023-06-26T06:19:14;20.30;99.90
10905;DHT22;5505;51.450;9.254;2023-06-26T06:22:01;20.50;99.90
10905;DHT22;5505;51.450;9.254;2023-06-26T06:24:49;20.60;99.90
10905;DHT22;5505;51.450;9.254;2023-06-26T06:27:37;20.80;99.90
10905;DHT22;5505;51.450;9.254;2023-06-26T06:30:25;21.10;99.90
10905;DHT22;5505;51.450;9.254;2023-06-26T06:33:12;21.30;99.90
10905;DHT22;5505;51.450;9.254;2023-06-26T06:35:59;21.40;99.90
10905;DHT22;5505;51.450;9.254;2023-06-26T06:38:46;21.50;99.90
10905;DHT22;5505;51.450;9.254;2023-06-26T06:41:33;21.70;99.90
10905;DHT22;5505;51.450;9.254;2023-06-26T06:44:19;21.90;99.90
10905;DHT22;5505;51.450;9.254;2023-06-26T06:47:08;22.10;99.90
10905;DHT22;5505;51.450;9.254;2023-06-26T06:49:55;22.30;99.90
10905;DHT22;5505;51.450;9.254;2023-06-26T06:52:42;22.40;99.90
10905;DHT22;5505;51.450;9.254;2023-06-26T06:55:29;22.80;99.90
10905;DHT22;5505;51.450;9.254;2023-06-26T06:58:16;22.80;99.90
10905;DHT22;5505;51.450;9.254;2023-06-26T07:01:04;22.90;99.90
10905;DHT22;5505;51.450;9.254;2023-06-26T07:03:52;23.10;99.90
10905;DHT22;5505;51.450;9.254;2023-06-26T07:06:39;23.20;99.90
10905;DHT22;5505;51.450;9.254;2023-06-26T07:09:26;23.40;99.90
10905;DHT22;5505;51.450;9.254;2023-06-26T07:12:12;23.50;99.90
10905;DHT22;5505;51.450;9.254;2023-06-26T07:15:00;23.70;99.90
10905;DHT22;5505;51.450;9.254;2023-06-26T07:17:47;23.90;99.90
10905;DHT22;5505;51.450;9.254;2023-06-26T07:20:35;24.10;99.90
10905;DHT22;5505;51.450;9.254;2023-06-26T07:23:21;24.50;99.90
10905;DHT22;5505;51.450;9.254;2023-06-26T07:26:08;24.20;99.90
10905;DHT22;5505;51.450;9.254;2023-06-26T07:28:55;24.50;99.90
10905;DHT22;5505;51.450;9.254;2023-06-26T07:31:42;24.60;99.90
10905;DHT22;5505;51.450;9.254;2023-06-26T07:34:30;24.80;99.90
10905;DHT22;5505;51.450;9.254;2023-06-26T07:37:18;24.90;99.90
10905;DHT22;5505;51.450;9.254;2023-06-26T07:40:06;25.10;99.90
10905;DHT22;5505;51.450;9.254;2023-06-26T07:42:53;25.20;99.90
10905;DHT22;5505;51.450;9.254;2023-06-26T07:45:40;25.30;99.90
10905;DHT22;5505;51.450;9.254;2023-06-26T07:48:27;25.30;99.90
10905;DHT22;5505;51.450;9.254;2023-06-26T07:51:13;25.50;99.90
10905;DHT22;5505;51.450;9.254;2023-06-26T07:54:02;25.60;99.90
10905;DHT22;5505;51.450;9.254;2023-06-26T07:56:53;25.70;99.90
10905;DHT22;5505;51.450;9.254;2023-06-26T07:59:40;25.80;99.90
10905;DHT22;5505;51.450;9.254;2023-06-26T08:02:27;26.00;99.90
10905;DHT22;5505;51.450;9.254;2023-06-26T08:05:14;26.10;99.90
10905;DHT22;5505;51.450;9.254;2023-06-26T08:08:01;26.10;99.90
10905;DHT22;5505;51.450;9.254;2023-06-26T08:10:50;26.30;99.90
10905;DHT22;5505;51.450;9.254;2023-06-26T08:13:36;26.30;99.90
10905;DHT22;5505;51.450;9.254;2023-06-26T08:16:23;26.50;99.90
10905;DHT22;5505;51.450;9.254;2023-06-26T08:19:10;26.60;99.90
10905;DHT22;5505;51.450;9.254;2023-06-26T08:21:57;26.70;99.90
10905;DHT22;5505;51.450;9.254;2023-06-26T08:24:44;26.80;99.90
10905;DHT22;5505;51.450;9.254;2023-06-26T08:27:32;27.10;99.90
10905;DHT22;5505;51.450;9.254;2023-06-26T08:30:19;26.90;99.90
10905;DHT22;5505;51.450;9.254;2023-06-26T08:33:06;27.00;99.90
10905;DHT22;5505;51.450;9.254;2023-06-26T08:35:57;27.20;99.90
10905;DHT22;5505;51.450;9.254;2023-06-26T08:38:44;26.70;99.90
10905;DHT22;5505;51.450;9.254;2023-06-26T08:41:31;27.20;99.90
10905;DHT22;5505;51.450;9.254;2023-06-26T08:44:19;27.30;99.90
10905;DHT22;5505;51.450;9.254;2023-06-26T08:47:11;27.20;99.90
10905;DHT22;5505;51.450;9.254;2023-06-26T08:50:07;27.30;99.90
10905;DHT22;5505;51.450;9.254;2023-06-26T08:52:57;27.20;99.90
10905;DHT22;5505;51.450;9.254;2023-06-26T08:55:49;27.40;99.90
10905;DHT22;5505;51.450;9.254;2023-06-26T08:58:37;27.60;99.90
10905;DHT22;5505;51.450;9.254;2023-06-26T09:01:26;27.60;99.90
10905;DHT22;5505;51.450;9.254;2023-06-26T09:04:13;27.40;99.90
10905;DHT22;5505;51.450;9.254;2023-06-26T09:07:00;27.20;99.90
10905;DHT22;5505;51.450;9.254;2023-06-26T09:09:47;26.80;99.90
10905;DHT22;5505;51.450;9.254;2023-06-26T09:12:35;26.50;99.90
10905;DHT22;5505;51.450;9.254;2023-06-26T09:15:21;26.30;99.90
10905;DHT22;5505;51.450;9.254;2023-06-26T09:18:10;26.10;99.90
10905;DHT22;5505;51.450;9.254;2023-06-26T09:20:56;26.10;99.90
10905;DHT22;5505;51.450;9.254;2023-06-26T09:23:43;26.20;99.90
10905;DHT22;5505;51.450;9.254;2023-06-26T09:26:31;26.20;99.90
10905;DHT22;5505;51.450;9.254;2023-06-26T09:29:19;26.10;99.90
10905;DHT22;5505;51.450;9.254;2023-06-26T09:32:07;25.90;99.90
10905;DHT22;5505;51.450;9.254;2023-06-26T09:34:56;25.80;99.90
10905;DHT22;5505;51.450;9.254;2023-06-26T09:37:43;25.80;99.90
10905;DHT22;5505;51.450;9.254;2023-06-26T09:40:30;25.80;99.90
10905;DHT22;5505;51.450;9.254;2023-06-26T09:43:18;25.70;99.90
10905;DHT22;5505;51.450;9.254;2023-06-26T09:46:06;25.70;99.90
10905;DHT22;5505;51.450;9.254;2023-06-26T09:48:59;25.70;99.90
10905;DHT22;5505;51.450;9.254;2023-06-26T09:51:49;25.40;99.90
10905;DHT22;5505;51.450;9.254;2023-06-26T09:54:36;25.40;99.90
10905;DHT22;5505;51.450;9.254;2023-06-26T09:57:23;25.30;99.90
10905;DHT22;5505;51.450;9.254;2023-06-26T10:00:11;25.20;99.90
10905;DHT22;5505;51.450;9.254;2023-06-26T10:02:59;24.80;99.90
10905;DHT22;5505;51.450;9.254;2023-06-26T10:05:46;24.70;99.90
10905;DHT22;5505;51.450;9.254;2023-06-26T10:08:37;24.40;99.90
10905;DHT22;5505;51.450;9.254;2023-06-26T10:11:25;24.20;99.90
10905;DHT22;5505;51.450;9.254;2023-06-26T10:14:17;24.20;99.90
10905;DHT22;5505;51.450;9.254;2023-06-26T10:17:08;24.10;99.90
10905;DHT22;5505;51.450;9.254;2023-06-26T10:19:58;24.00;99.90
10905;DHT22;5505;51.450;9.254;2023-06-26T10:22:48;23.90;99.90
10905;DHT22;5505;51.450;9.254;2023-06-26T10:25:40;23.90;99.90
10905;DHT22;5505;51.450;9.254;2023-06-26T10:28:30;23.80;99.90
10905;DHT22;5505;51.450;9.254;2023-06-26T10:31:20;23.70;99.90
10905;DHT22;5505;51.450;9.254;2023-06-26T10:34:08;23.70;99.90
10905;DHT22;5505;51.450;9.254;2023-06-26T10:37:01;23.60;99.90
10905;DHT22;5505;51.450;9.254;2023-06-26T10:39:49;23.50;99.90
10905;DHT22;5505;51.450;9.254;2023-06-26T10:42:39;23.50;99.90
10905;DHT22;5505;51.450;9.254;2023-06-26T10:45:28;21.90;99.90
10905;DHT22;5505;51.450;9.254;2023-06-26T10:48:15;23.50;99.90
10905;DHT22;5505;51.450;9.254;2023-06-26T10:51:13;23.60;99.90
10905;DHT22;5505;51.450;9.254;2023-06-26T10:54:01;24.10;99.90
10905;DHT22;5505;51.450;9.254;2023-06-26T10:56:49;23.80;99.90
10905;DHT22;5505;51.450;9.254;2023-06-26T10:59:40;23.80;99.90
10905;DHT22;5505;51.450;9.254;2023-06-26T11:02:27;23.90;99.90
10905;DHT22;5505;51.450;9.254;2023-06-26T11:05:23;24.10;99.90
10905;DHT22;5505;51.450;9.254;2023-06-26T11:08:10;24.10;99.90
10905;DHT22;5505;51.450;9.254;2023-06-26T11:11:01;24.20;99.90
10905;DHT22;5505;51.450;9.254;2023-06-26T11:13:48;24.10;99.90
10905;DHT22;5505;51.450;9.254;2023-06-26T11:16:36;24.20;99.90
10905;DHT22;5505;51.450;9.254;2023-06-26T11:19:25;24.30;99.90
10905;DHT22;5505;51.450;9.254;2023-06-26T11:22:13;24.40;99.90
10905;DHT22;5505;51.450;9.254;2023-06-26T11:25:01;24.20;99.90
10905;DHT22;5505;51.450;9.254;2023-06-26T11:27:48;24.00;99.90
10905;DHT22;5505;51.450;9.254;2023-06-26T11:30:35;23.90;99.90
10905;DHT22;5505;51.450;9.254;2023-06-26T11:33:26;23.80;99.90
10905;DHT22;5505;51.450;9.254;2023-06-26T11:36:13;23.80;99.90
10905;DHT22;5505;51.450;9.254;2023-06-26T11:39:02;23.90;99.90
10905;DHT22;5505;51.450;9.254;2023-06-26T11:41:49;23.90;99.90
10905;DHT22;5505;51.450;9.254;2023-06-26T11:44:40;23.70;99.90
10905;DHT22;5505;51.450;9.254;2023-06-26T11:47:28;23.80;99.90
10905;DHT22;5505;51.450;9.254;2023-06-26T11:50:17;23.80;99.90
10905;DHT22;5505;51.450;9.254;2023-06-26T11:53:04;23.80;99.90
10905;DHT22;5505;51.450;9.254;2023-06-26T11:55:51;23.80;99.90
10905;DHT22;5505;51.450;9.254;2023-06-26T11:58:56;23.70;99.90
10905;DHT22;5505;51.450;9.254;2023-06-26T12:01:44;23.90;99.90
10905;DHT22;5505;51.450;9.254;2023-06-26T12:04:31;23.90;99.90
10905;DHT22;5505;51.450;9.254;2023-06-26T12:07:19;24.00;99.90
10905;DHT22;5505;51.450;9.254;2023-06-26T12:10:09;24.20;99.90
10905;DHT22;5505;51.450;9.254;2023-06-26T12:12:56;24.30;99.90
10905;DHT22;5505;51.450;9.254;2023-06-26T12:15:46;24.30;99.90
10905;DHT22;5505;51.450;9.254;2023-06-26T12:18:34;24.20;99.90
10905;DHT22;5505;51.450;9.254;2023-06-26T12:21:46;24.10;99.90
10905;DHT22;5505;51.450;9.254;2023-06-26T12:24:36;23.90;99.90
10905;DHT22;5505;51.450;9.254;2023-06-26T12:27:24;23.80;99.90
10905;DHT22;5505;51.450;9.254;2023-06-26T12:30:12;23.80;99.90
10905;DHT22;5505;51.450;9.254;2023-06-26T12:32:59;23.80;99.90
10905;DHT22;5505;51.450;9.254;2023-06-26T12:35:46;23.80;99.90
10905;DHT22;5505;51.450;9.254;2023-06-26T12:38:33;23.80;99.90
10905;DHT22;5505;51.450;9.254;2023-06-26T12:41:24;24.00;99.90
10905;DHT22;5505;51.450;9.254;2023-06-26T12:44:17;23.90;99.90
10905;DHT22;5505;51.450;9.254;2023-06-26T12:47:04;24.10;99.90
10905;DHT22;5505;51.450;9.254;2023-06-26T12:49:52;24.30;99.90
10905;DHT22;5505;51.450;9.254;2023-06-26T12:52:39;24.40;99.90
10905;DHT22;5505;51.450;9.254;2023-06-26T12:55:25;24.40;99.90
10905;DHT22;5505;51.450;9.254;2023-06-26T12:58:13;24.50;99.90
10905;DHT22;5505;51.450;9.254;2023-06-26T13:01:03;24.50;99.90
10905;DHT22;5505;51.450;9.254;2023-06-26T13:03:50;24.60;99.90
10905;DHT22;5505;51.450;9.254;2023-06-26T13:06:37;24.80;99.90
10905;DHT22;5505;51.450;9.254;2023-06-26T13:09:25;24.80;99.90
10905;DHT22;5505;51.450;9.254;2023-06-26T13:12:11;24.60;99.90
10905;DHT22;5505;51.450;9.254;2023-06-26T13:15:00;24.50;99.90
10905;DHT22;5505;51.450;9.254;2023-06-26T13:17:47;24.40;99.90
10905;DHT22;5505;51.450;9.254;2023-06-26T13:20:34;24.90;99.90
10905;DHT22;5505;51.450;9.254;2023-06-26T13:23:21;24.50;99.90
10905;DHT22;5505;51.450;9.254;2023-06-26T13:26:09;24.50;99.90
10905;DHT22;5505;51.450;9.254;2023-06-26T13:28:56;24.50;99.90
10905;DHT22;5505;51.450;9.254;2023-06-26T13:31:44;24.30;99.90
10905;DHT22;5505;51.450;9.254;2023-06-26T13:34:31;24.20;99.90
10905;DHT22;5505;51.450;9.254;2023-06-26T13:37:18;24.20;99.90
10905;DHT22;5505;51.450;9.254;2023-06-26T13:40:07;24.20;99.90
10905;DHT22;5505;51.450;9.254;2023-06-26T13:42:54;24.30;99.90
10905;DHT22;5505;51.450;9.254;2023-06-26T13:45:41;24.40;99.90
10905;DHT22;5505;51.450;9.254;2023-06-26T13:48:29;24.50;99.90
10905;DHT22;5505;51.450;9.254;2023-06-26T13:51:16;24.60;99.90
10905;DHT22;5505;51.450;9.254;2023-06-26T13:54:03;24.70;99.90
10905;DHT22;5505;51.450;9.254;2023-06-26T13:56:49;24.80;99.90
10905;DHT22;5505;51.450;9.254;2023-06-26T13:59:38;24.80;99.90
10905;DHT22;5505;51.450;9.254;2023-06-26T14:02:25;24.80;99.90
10905;DHT22;5505;51.450;9.254;2023-06-26T14:05:14;24.80;99.90
10905;DHT22;5505;51.450;9.254;2023-06-26T14:08:03;24.80;99.90
10905;DHT22;5505;51.450;9.254;2023-06-26T14:10:50;24.50;99.90
10905;DHT22;5505;51.450;9.254;2023-06-26T14:13:36;24.50;99.90
10905;DHT22;5505;51.450;9.254;2023-06-26T14:16:26;24.60;99.90
10905;DHT22;5505;51.450;9.254;2023-06-26T14:19:14;24.70;99.90
10905;DHT22;5505;51.450;9.254;2023-06-26T14:22:07;24.80;99.90
10905;DHT22;5505;51.450;9.254;2023-06-26T14:24:54;24.90;99.90
10905;DHT22;5505;51.450;9.254;2023-06-26T14:27:40;24.80;99.90
10905;DHT22;5505;51.450;9.254;2023-06-26T14:30:29;24.90;99.90
10905;DHT22;5505;51.450;9.254;2023-06-26T14:33:16;24.80;99.90
10905;DHT22;5505;51.450;9.254;2023-06-26T14:36:03;24.60;99.90
10905;DHT22;5505;51.450;9.254;2023-06-26T14:38:51;24.80;99.90
10905;DHT22;5505;51.450;9.254;2023-06-26T14:41:38;24.70;99.90
10905;DHT22;5505;51.450;9.254;2023-06-26T14:44:24;24.60;99.90
10905;DHT22;5505;51.450;9.254;2023-06-26T14:47:11;24.50;99.90
10905;DHT22;5505;51.450;9.254;2023-06-26T14:49:58;24.30;99.90
10905;DHT22;5505;51.450;9.254;2023-06-26T14:52:45;24.00;99.90
10905;DHT22;5505;51.450;9.254;2023-06-26T14:55:33;23.90;99.90
10905;DHT22;5505;51.450;9.254;2023-06-26T14:58:20;23.60;99.90
10905;DHT22;5505;51.450;9.254;2023-06-26T15:01:06;23.60;99.90
10905;DHT22;5505;51.450;9.254;2023-06-26T15:03:54;23.70;99.90
10905;DHT22;5505;51.450;9.254;2023-06-26T15:06:41;23.80;99.90
10905;DHT22;5505;51.450;9.254;2023-06-26T15:09:27;23.90;99.90
10905;DHT22;5505;51.450;9.254;2023-06-26T15:12:15;23.90;99.90
10905;DHT22;5505;51.450;9.254;2023-06-26T15:15:03;23.90;99.90
10905;DHT22;5505;51.450;9.254;2023-06-26T15:17:49;23.90;99.90
10905;DHT22;5505;51.450;9.254;2023-06-26T15:20:36;23.90;99.90
10905;DHT22;5505;51.450;9.254;2023-06-26T15:23:23;23.80;99.90
10905;DHT22;5505;51.450;9.254;2023-06-26T15:26:12;24.00;99.90
10905;DHT22;5505;51.450;9.254;2023-06-26T15:29:00;24.00;99.90
10905;DHT22;5505;51.450;9.254;2023-06-26T15:31:47;24.00;99.90
10905;DHT22;5505;51.450;9.254;2023-06-26T15:34:34;23.90;99.90
10905;DHT22;5505;51.450;9.254;2023-06-26T15:37:21;23.60;99.90
10905;DHT22;5505;51.450;9.254;2023-06-26T15:40:09;23.40;99.90
10905;DHT22;5505;51.450;9.254;2023-06-26T15:42:56;23.20;99.90
10905;DHT22;5505;51.450;9.254;2023-06-26T15:45:44;23.00;99.90
10905;DHT22;5505;51.450;9.254;2023-06-26T15:48:31;22.80;99.90
10905;DHT22;5505;51.450;9.254;2023-06-26T15:51:19;22.90;99.90
10905;DHT22;5505;51.450;9.254;2023-06-26T15:54:05;23.00;99.90
10905;DHT22;5505;51.450;9.254;2023-06-26T15:56:53;22.90;99.90
10905;DHT22;5505;51.450;9.254;2023-06-26T15:59:39;23.00;99.90
10905;DHT22;5505;51.450;9.254;2023-06-26T16:02:27;22.00;99.90
10905;DHT22;5505;51.450;9.254;2023-06-26T16:05:14;22.70;99.90
10905;DHT22;5505;51.450;9.254;2023-06-26T16:08:01;22.70;99.90
10905;DHT22;5505;51.450;9.254;2023-06-26T16:10:48;22.70;99.90
10905;DHT22;5505;51.450;9.254;2023-06-26T16:13:34;22.70;99.90
10905;DHT22;5505;51.450;9.254;2023-06-26T16:16:21;22.50;99.90
10905;DHT22;5505;51.450;9.254;2023-06-26T16:19:09;22.50;99.90
10905;DHT22;5505;51.450;9.254;2023-06-26T16:21:56;22.60;99.90
10905;DHT22;5505;51.450;9.254;2023-06-26T16:24:43;22.40;99.90
10905;DHT22;5505;51.450;9.254;2023-06-26T16:27:30;22.40;99.90
10905;DHT22;5505;51.450;9.254;2023-06-26T16:30:16;22.30;99.90
10905;DHT22;5505;51.450;9.254;2023-06-26T16:33:03;22.20;99.90
10905;DHT22;5505;51.450;9.254;2023-06-26T16:35:52;22.10;99.90
10905;DHT22;5505;51.450;9.254;2023-06-26T16:38:39;22.10;99.90
10905;DHT22;5505;51.450;9.254;2023-06-26T16:41:27;22.10;99.90
10905;DHT22;5505;51.450;9.254;2023-06-26T16:44:14;22.00;99.90
10905;DHT22;5505;51.450;9.254;2023-06-26T16:47:00;21.90;99.90
10905;DHT22;5505;51.450;9.254;2023-06-26T16:49:47;21.90;99.90
10905;DHT22;5505;51.450;9.254;2023-06-26T16:52:35;21.90;99.90
10905;DHT22;5505;51.450;9.254;2023-06-26T16:55:22;22.10;99.90
10905;DHT22;5505;51.450;9.254;2023-06-26T16:58:09;21.70;99.90
10905;DHT22;5505;51.450;9.254;2023-06-26T17:00:56;21.70;99.90
10905;DHT22;5505;51.450;9.254;2023-06-26T17:03:43;22.10;99.90
10905;DHT22;5505;51.450;9.254;2023-06-26T17:06:29;21.80;99.90
10905;DHT22;5505;51.450;9.254;2023-06-26T17:09:17;21.70;99.90
10905;DHT22;5505;51.450;9.254;2023-06-26T17:12:05;21.70;99.90
10905;DHT22;5505;51.450;9.254;2023-06-26T17:14:52;21.60;99.90
10905;DHT22;5505;51.450;9.254;2023-06-26T17:17:39;21.60;99.90
10905;DHT22;5505;51.450;9.254;2023-06-26T17:20:26;21.70;99.90
10905;DHT22;5505;51.450;9.254;2023-06-26T17:23:12;21.80;99.90
10905;DHT22;5505;51.450;9.254;2023-06-26T17:26:01;21.70;99.90
10905;DHT22;5505;51.450;9.254;2023-06-26T17:28:48;21.60;99.90
10905;DHT22;5505;51.450;9.254;2023-06-26T17:31:35;21.50;99.90
10905;DHT22;5505;51.450;9.254;2023-06-26T17:34:21;21.50;99.90
10905;DHT22;5505;51.450;9.254;2023-06-26T17:37:08;21.40;99.90
10905;DHT22;5505;51.450;9.254;2023-06-26T17:39:55;21.30;99.90
10905;DHT22;5505;51.450;9.254;2023-06-26T17:42:43;21.20;99.90
10905;DHT22;5505;51.450;9.254;2023-06-26T17:45:30;21.10;99.90
10905;DHT22;5505;51.450;9.254;2023-06-26T17:48:16;21.00;99.90
10905;DHT22;5505;51.450;9.254;2023-06-26T17:51:03;20.90;99.90
10905;DHT22;5505;51.450;9.254;2023-06-26T17:53:50;20.90;99.90
10905;DHT22;5505;51.450;9.254;2023-06-26T17:56:37;20.80;99.90